sensor_id;sensor_type;location;lat;lon;timestamp;pressure;altitude;pressure_sealevel;temperature;humidity
21902;BME280;11115;46.038;14.612;2023-06-04T00:00:40;98550.09;;;15.17;100.00
21902;BME280;11115;46.038;14.612;2023-06-04T00:03:10;98571.34;;;15.31;100.00
21902;BME280;11115;46.038;14.612;2023-06-04T00:05:44;98569.16;;;15.36;100.00
21902;BME280;11115;46.038;14.612;2023-06-04T00:08:19;98568.78;;;15.17;100.00
21902;BME280;11115;46.038;14.612;2023-06-04T00:10:50;98574.72;;;14.77;100.00
21902;BME280;11115;46.038;14.612;2023-06-04T00:13:22;98571.00;;;14.65;100.00
21902;BME280;11115;46.038;14.612;2023-06-04T00:16:00;98553.66;;;14.68;100.00
21902;BME280;11115;46.038;14.612;2023-06-04T00:18:46;98567.00;;;14.83;100.00
21902;BME280;11115;46.038;14.612;2023-06-04T00:21:23;98569.78;;;14.83;100.00
21902;BME280;11115;46.038;14.612;2023-06-04T00:23:53;98568.06;;;14.99;100.00
21902;BME280;11115;46.038;14.612;2023-06-04T00:26:31;98560.72;;;14.95;100.00
21902;BME280;11115;46.038;14.612;2023-06-04T00:29:02;98567.38;;;14.73;100.00
21902;BME280;11115;46.038;14.612;2023-06-04T00:31:34;98556.59;;;14.63;100.00
21902;BME280;11115;46.038;14.612;2023-06-04T00:34:05;98543.34;;;14.60;100.00
21902;BME280;11115;46.038;14.612;2023-06-04T00:36:36;98566.72;;;14.76;100.00
21902;BME280;11115;46.038;14.612;2023-06-04T00:39:05;98563.09;;;14.75;100.00
21902;BME280;11115;46.038;14.612;2023-06-04T00:41:34;98544.91;;;14.78;100.00
21902;BME280;11115;46.038;14.612;2023-06-04T00:44:09;98554.91;;;15.08;100.00
21902;BME280;11115;46.038;14.612;2023-06-04T00:46:41;98493.50;;;14.75;100.00
21902;BME280;11115;46.038;14.612;2023-06-04T00:49:20;98541.97;;;15.04;100.00
21902;BME280;11115;46.038;14.612;2023-06-04T00:52:07;98554.50;;;15.18;100.00
21902;BME280;11115;46.038;14.612;2023-06-04T00:54:42;98546.00;;;15.15;100.00
21902;BME280;11115;46.038;14.612;2023-06-04T00:57:22;98536.16;;;15.17;100.00
21902;BME280;11115;46.038;14.612;2023-06-04T00:59:59;98529.44;;;15.18;100.00
21902;BME280;11115;46.038;14.612;2023-06-04T01:02:38;98535.28;;;15.05;100.00
21902;BME280;11115;46.038;14.612;2023-06-04T01:05:36;98542.63;;;15.09;100.00
21902;BME280;11115;46.038;14.612;2023-06-04T01:08:13;98537.03;;;15.09;100.00
21902;BME280;11115;46.038;14.612;2023-06-04T01:10:53;98538.28;;;15.21;100.00
21902;BME280;11115;46.038;14.612;2023-06-04T01:13:27;98544.81;;;15.25;100.00
21902;BME280;11115;46.038;14.612;2023-06-04T01:16:13;98537.78;;;15.18;100.00
21902;BME280;11115;46.038;14.612;2023-06-04T01:18:49;98545.97;;;15.24;100.00
21902;BME280;11115;46.038;14.612;2023-06-04T01:21:26;98536.09;;;15.05;100.00
21902;BME280;11115;46.038;14.612;2023-06-04T01:24:09;98533.78;;;15.07;100.00
21902;BME280;11115;46.038;14.612;2023-06-04T01:26:42;98520.91;;;14.94;100.00
21902;BME280;11115;46.038;14.612;2023-06-04T01:29:17;98530.09;;;14.95;100.00
21902;BME280;11115;46.038;14.612;2023-06-04T01:32:02;98529.25;;;14.94;100.00
21902;BME280;11115;46.038;14.612;2023-06-04T01:34:44;98526.03;;;14.83;100.00
21902;BME280;11115;46.038;14.612;2023-06-04T01:37:19;98518.88;;;14.74;100.00
21902;BME280;11115;46.038;14.612;2023-06-04T01:39:55;98523.44;;;14.78;100.00
21902;BME280;11115;46.038;14.612;2023-06-04T01:42:28;98521.81;;;14.77;100.00
21902;BME280;11115;46.038;14.612;2023-06-04T01:45:00;98506.00;;;14.61;100.00
21902;BME280;11115;46.038;14.612;2023-06-04T01:47:31;98511.66;;;14.43;100.00
21902;BME280;11115;46.038;14.612;2023-06-04T01:50:05;98518.06;;;14.26;100.00
21902;BME280;11115;46.038;14.612;2023-06-04T01:52:44;98520.59;;;14.11;100.00
21902;BME280;11115;46.038;14.612;2023-06-04T01:55:16;98521.25;;;13.99;100.00
21902;BME280;11115;46.038;14.612;2023-06-04T01:57:51;98519.47;;;13.86;100.00
21902;BME280;11115;46.038;14.612;2023-06-04T02:00:24;98522.75;;;13.79;100.00
21902;BME280;11115;46.038;14.612;2023-06-04T02:02:55;98507.53;;;13.85;100.00
21902;BME280;11115;46.038;14.612;2023-06-04T02:05:32;98511.28;;;13.98;100.00
21902;BME280;11115;46.038;14.612;2023-06-04T02:08:17;98510.41;;;14.15;100.00
21902;BME280;11115;46.038;14.612;2023-06-04T02:10:53;98519.72;;;14.19;100.00
21902;BME280;11115;46.038;14.612;2023-06-04T02:13:23;98522.88;;;14.00;100.00
21902;BME280;11115;46.038;14.612;2023-06-04T02:15:54;98522.88;;;14.00;100.00
21902;BME280;11115;46.038;14.612;2023-06-04T02:18:39;98519.78;;;14.02;100.00
21902;BME280;11115;46.038;14.612;2023-06-04T02:21:11;98515.88;;;13.94;100.00
21902;BME280;11115;46.038;14.612;2023-06-04T02:23:54;98514.78;;;13.69;100.00
21902;BME280;11115;46.038;14.612;2023-06-04T02:26:25;98520.97;;;13.57;100.00
21902;BME280;11115;46.038;14.612;2023-06-04T02:28:55;98516.72;;;13.68;100.00
21902;BME280;11115;46.038;14.612;2023-06-04T02:31:32;98504.78;;;13.25;100.00
21902;BME280;11115;46.038;14.612;2023-06-04T02:34:11;98506.59;;;13.55;100.00
21902;BME280;11115;46.038;14.612;2023-06-04T02:36:59;98515.22;;;13.80;100.00
21902;BME280;11115;46.038;14.612;2023-06-04T02:39:29;98518.19;;;13.92;100.00
21902;BME280;11115;46.038;14.612;2023-06-04T02:42:03;98521.59;;;13.97;100.00
21902;BME280;11115;46.038;14.612;2023-06-04T02:44:35;98519.00;;;13.92;100.00
21902;BME280;11115;46.038;14.612;2023-06-04T02:47:06;98515.25;;;13.71;100.00
21902;BME280;11115;46.038;14.612;2023-06-04T02:49:41;98527.66;;;13.65;100.00
21902;BME280;11115;46.038;14.612;2023-06-04T02:52:11;98524.75;;;13.70;100.00
21902;BME280;11115;46.038;14.612;2023-06-04T02:54:56;98527.34;;;13.75;100.00
21902;BME280;11115;46.038;14.612;2023-06-04T02:57:25;98519.34;;;13.74;100.00
21902;BME280;11115;46.038;14.612;2023-06-04T02:59:59;98529.13;;;13.80;100.00
21902;BME280;11115;46.038;14.612;2023-06-04T03:02:45;98524.09;;;13.73;100.00
21902;BME280;11115;46.038;14.612;2023-06-04T03:05:16;98538.97;;;13.77;100.00
21902;BME280;11115;46.038;14.612;2023-06-04T03:07:56;98521.13;;;13.61;100.00
21902;BME280;11115;46.038;14.612;2023-06-04T03:10:31;98546.47;;;13.77;100.00
21902;BME280;11115;46.038;14.612;2023-06-04T03:13:01;98544.16;;;13.87;100.00
21902;BME280;11115;46.038;14.612;2023-06-04T03:15:34;98539.72;;;14.04;100.00
21902;BME280;11115;46.038;14.612;2023-06-04T03:18:08;98540.22;;;14.06;100.00
21902;BME280;11115;46.038;14.612;2023-06-04T03:20:38;98522.91;;;13.83;100.00
21902;BME280;11115;46.038;14.612;2023-06-04T03:23:06;98527.47;;;13.87;100.00
21902;BME280;11115;46.038;14.612;2023-06-04T03:25:38;98547.91;;;14.00;100.00
21902;BME280;11115;46.038;14.612;2023-06-04T03:28:10;98553.97;;;14.11;100.00
21902;BME280;11115;46.038;14.612;2023-06-04T03:30:45;98558.53;;;14.07;100.00
21902;BME280;11115;46.038;14.612;2023-06-04T03:33:20;98562.78;;;14.13;100.00
21902;BME280;11115;46.038;14.612;2023-06-04T03:35:56;98550.16;;;14.24;100.00
21902;BME280;11115;46.038;14.612;2023-06-04T03:38:30;98554.41;;;14.30;100.00
21902;BME280;11115;46.038;14.612;2023-06-04T03:41:08;98559.31;;;14.24;100.00
21902;BME280;11115;46.038;14.612;2023-06-04T03:43:41;98558.97;;;14.35;100.00
21902;BME280;11115;46.038;14.612;2023-06-04T03:46:13;98559.13;;;14.38;100.00
21902;BME280;11115;46.038;14.612;2023-06-04T03:48:48;98562.75;;;14.47;100.00
21902;BME280;11115;46.038;14.612;2023-06-04T03:51:23;98567.94;;;14.57;100.00
21902;BME280;11115;46.038;14.612;2023-06-04T03:53:55;98548.94;;;14.42;100.00
21902;BME280;11115;46.038;14.612;2023-06-04T03:56:30;98571.19;;;14.60;100.00
21902;BME280;11115;46.038;14.612;2023-06-04T03:59:03;98574.28;;;14.67;100.00
21902;BME280;11115;46.038;14.612;2023-06-04T04:01:35;98563.09;;;14.75;100.00
21902;BME280;11115;46.038;14.612;2023-06-04T04:04:09;98565.63;;;14.60;100.00
21902;BME280;11115;46.038;14.612;2023-06-04T04:06:44;98556.59;;;14.63;100.00
21902;BME280;11115;46.038;14.612;2023-06-04T04:09:14;98565.22;;;14.78;100.00
21902;BME280;11115;46.038;14.612;2023-06-04T04:11:51;98564.25;;;14.74;100.00
21902;BME280;11115;46.038;14.612;2023-06-04T04:14:33;98565.22;;;14.78;100.00
21902;BME280;11115;46.038;14.612;2023-06-04T04:17:17;98563.44;;;14.74;100.00
21902;BME280;11115;46.038;14.612;2023-06-04T04:19:48;98574.88;;;14.81;100.00
21902;BME280;11115;46.038;14.612;2023-06-04T04:22:25;98562.91;;;14.80;100.00
21902;BME280;11115;46.038;14.612;2023-06-04T04:24:56;98580.06;;;14.91;100.00
21902;BME280;11115;46.038;14.612;2023-06-04T04:27:28;98558.00;;;14.86;100.00
21902;BME280;11115;46.038;14.612;2023-06-04T04:30:12;98585.44;;;15.05;100.00
21902;BME280;11115;46.038;14.612;2023-06-04T04:32:55;98588.03;;;15.01;100.00
21902;BME280;11115;46.038;14.612;2023-06-04T04:35:31;98593.09;;;15.08;100.00
21902;BME280;11115;46.038;14.612;2023-06-04T04:38:09;98588.84;;;15.10;100.00
21902;BME280;11115;46.038;14.612;2023-06-04T04:40:47;98562.50;;;14.99;100.00
21902;BME280;11115;46.038;14.612;2023-06-04T04:46:21;98583.53;;;15.17;100.00
21902;BME280;11115;46.038;14.612;2023-06-04T04:48:53;98532.25;;;14.89;100.00
21902;BME280;11115;46.038;14.612;2023-06-04T04:51:29;98569.81;;;15.12;100.00
21902;BME280;11115;46.038;14.612;2023-06-04T04:53:59;98571.44;;;15.13;100.00
21902;BME280;11115;46.038;14.612;2023-06-04T04:56:36;98559.00;;;15.11;100.00
21902;BME280;11115;46.038;14.612;2023-06-04T04:59:12;98567.97;;;15.16;100.00
21902;BME280;11115;46.038;14.612;2023-06-04T05:01:44;98569.75;;;15.21;100.00
21902;BME280;11115;46.038;14.612;2023-06-04T05:04:15;98515.81;;;14.96;100.00
21902;BME280;11115;46.038;14.612;2023-06-04T05:06:46;98567.94;;;15.25;100.00
21902;BME280;11115;46.038;14.612;2023-06-04T05:09:16;98574.59;;;15.33;100.00
21902;BME280;11115;46.038;14.612;2023-06-04T05:11:47;98571.81;;;15.33;100.00
21902;BME280;11115;46.038;14.612;2023-06-04T05:14:23;98573.91;;;15.36;100.00
21902;BME280;11115;46.038;14.612;2023-06-04T05:16:53;98560.19;;;15.52;100.00
21902;BME280;11115;46.038;14.612;2023-06-04T05:19:24;98565.06;;;15.63;100.00
21902;BME280;11115;46.038;14.612;2023-06-04T05:21:57;98562.41;;;15.67;100.00
21902;BME280;11115;46.038;14.612;2023-06-04T05:24:32;98526.94;;;15.46;100.00
21902;BME280;11115;46.038;14.612;2023-06-04T05:27:09;98561.59;;;15.66;100.00
21902;BME280;11115;46.038;14.612;2023-06-04T05:29:40;98563.59;;;15.78;100.00
21902;BME280;11115;46.038;14.612;2023-06-04T05:32:12;98555.13;;;15.74;100.00
21902;BME280;11115;46.038;14.612;2023-06-04T05:34:46;98563.44;;;15.83;100.00
21902;BME280;11115;46.038;14.612;2023-06-04T05:37:20;98559.16;;;15.98;100.00
21902;BME280;11115;46.038;14.612;2023-06-04T05:39:57;98549.38;;;15.92;100.00
21902;BME280;11115;46.038;14.612;2023-06-04T05:42:28;98553.41;;;16.15;100.00
21902;BME280;11115;46.038;14.612;2023-06-04T05:45:01;98550.75;;;16.19;100.00
21902;BME280;11115;46.038;14.612;2023-06-04T05:47:31;98555.19;;;16.20;100.00
21902;BME280;11115;46.038;14.612;2023-06-04T05:50:11;98569.88;;;16.29;100.00
21902;BME280;11115;46.038;14.612;2023-06-04T05:52:42;98558.69;;;16.29;100.00
21902;BME280;11115;46.038;14.612;2023-06-04T05:55:23;98562.41;;;16.21;100.00
21902;BME280;11115;46.038;14.612;2023-06-04T05:58:01;98576.38;;;16.33;100.00
21902;BME280;11115;46.038;14.612;2023-06-04T06:00:45;98567.69;;;16.47;100.00
21902;BME280;11115;46.038;14.612;2023-06-04T06:03:21;98568.22;;;16.73;100.00
21902;BME280;11115;46.038;14.612;2023-06-04T06:05:56;98570.59;;;16.83;100.00
21902;BME280;11115;46.038;14.612;2023-06-04T06:08:31;98561.72;;;16.81;100.00
21902;BME280;11115;46.038;14.612;2023-06-04T06:11:00;98571.63;;;16.91;100.00
21902;BME280;11115;46.038;14.612;2023-06-04T06:13:38;98580.81;;;16.91;100.00
21902;BME280;11115;46.038;14.612;2023-06-04T06:16:10;98584.06;;;16.69;100.00
21902;BME280;11115;46.038;14.612;2023-06-04T06:18:41;98583.50;;;16.88;100.00
21902;BME280;11115;46.038;14.612;2023-06-04T06:21:15;98585.59;;;16.79;100.00
21902;BME280;11115;46.038;14.612;2023-06-04T06:23:51;98582.34;;;17.01;100.00
21902;BME280;11115;46.038;14.612;2023-06-04T06:26:31;98590.38;;;17.15;100.00
21902;BME280;11115;46.038;14.612;2023-06-04T06:29:05;98587.72;;;17.18;100.00
21902;BME280;11115;46.038;14.612;2023-06-04T06:31:35;98588.59;;;17.35;100.00
21902;BME280;11115;46.038;14.612;2023-06-04T06:34:08;98580.09;;;17.31;100.00
21902;BME280;11115;46.038;14.612;2023-06-04T06:36:52;98564.63;;;17.21;100.00
21902;BME280;11115;46.038;14.612;2023-06-04T06:39:28;98585.94;;;17.38;100.00
21902;BME280;11115;46.038;14.612;2023-06-04T06:41:59;98578.38;;;17.39;100.00
21902;BME280;11115;46.038;14.612;2023-06-04T06:44:35;98575.53;;;17.51;100.00
21902;BME280;11115;46.038;14.612;2023-06-04T06:47:07;98560.53;;;17.55;100.00
21902;BME280;11115;46.038;14.612;2023-06-04T06:49:46;98574.09;;;17.81;100.00
21902;BME280;11115;46.038;14.612;2023-06-04T06:52:19;98573.66;;;17.79;100.00
21902;BME280;11115;46.038;14.612;2023-06-04T06:54:51;98573.66;;;17.79;100.00
21902;BME280;11115;46.038;14.612;2023-06-04T06:57:29;98563.69;;;17.94;100.00
21902;BME280;11115;46.038;14.612;2023-06-04T07:00:08;98563.25;;;18.08;100.00
21902;BME280;11115;46.038;14.612;2023-06-04T07:02:42;98571.81;;;18.27;100.00
21902;BME280;11115;46.038;14.612;2023-06-04T07:05:30;98570.03;;;18.35;100.00
21902;BME280;11115;46.038;14.612;2023-06-04T07:08:03;98568.97;;;18.11;100.00
21902;BME280;11115;46.038;14.612;2023-06-04T07:10:31;98569.91;;;18.15;100.00
21902;BME280;11115;46.038;14.612;2023-06-04T07:13:02;98569.19;;;18.18;100.00
21902;BME280;11115;46.038;14.612;2023-06-04T07:15:33;98573.06;;;18.30;100.00
21902;BME280;11115;46.038;14.612;2023-06-04T07:18:09;98578.44;;;18.35;100.00
21902;BME280;11115;46.038;14.612;2023-06-04T07:20:52;98523.88;;;18.01;100.00
21902;BME280;11115;46.038;14.612;2023-06-04T07:23:23;98583.50;;;18.45;100.00
21902;BME280;11115;46.038;14.612;2023-06-04T07:25:56;98591.50;;;18.59;100.00
21902;BME280;11115;46.038;14.612;2023-06-04T07:28:29;98575.84;;;18.58;100.00
21902;BME280;11115;46.038;14.612;2023-06-04T07:31:05;98584.56;;;18.68;100.00
21902;BME280;11115;46.038;14.612;2023-06-04T07:33:40;98568.84;;;18.79;100.00
21902;BME280;11115;46.038;14.612;2023-06-04T07:36:23;98563.69;;;18.82;100.00
21902;BME280;11115;46.038;14.612;2023-06-04T07:39:07;98575.63;;;18.94;100.00
21902;BME280;11115;46.038;14.612;2023-06-04T07:41:38;98572.53;;;18.84;100.00
21902;BME280;11115;46.038;14.612;2023-06-04T07:44:11;98530.41;;;18.80;100.00
21902;BME280;11115;46.038;14.612;2023-06-04T07:46:44;98564.84;;;19.12;100.00
21902;BME280;11115;46.038;14.612;2023-06-04T07:49:25;98570.34;;;19.24;100.00
21902;BME280;11115;46.038;14.612;2023-06-04T07:51:59;98568.56;;;19.16;100.00
21902;BME280;11115;46.038;14.612;2023-06-04T07:54:31;98572.09;;;19.29;100.00
21902;BME280;11115;46.038;14.612;2023-06-04T07:57:12;98556.06;;;19.29;100.00
21902;BME280;11115;46.038;14.612;2023-06-04T07:59:44;98570.91;;;19.65;100.00
21902;BME280;11115;46.038;14.612;2023-06-04T08:02:13;98558.50;;;19.66;100.00
21902;BME280;11115;46.038;14.612;2023-06-04T08:04:48;98566.22;;;19.88;100.00
21902;BME280;11115;46.038;14.612;2023-06-04T08:07:24;98558.19;;;19.87;100.00
21902;BME280;11115;46.038;14.612;2023-06-04T08:09:54;98567.03;;;19.89;100.00
21902;BME280;11115;46.038;14.612;2023-06-04T08:12:32;98569.47;;;20.10;100.00
21902;BME280;11115;46.038;14.612;2023-06-04T08:15:12;98566.31;;;19.92;100.00
21902;BME280;11115;46.038;14.612;2023-06-04T08:17:40;98565.78;;;19.51;100.00
21902;BME280;11115;46.038;14.612;2023-06-04T08:20:12;98555.19;;;19.60;100.00
21902;BME280;11115;46.038;14.612;2023-06-04T08:22:44;98559.50;;;20.12;100.00
21902;BME280;11115;46.038;14.612;2023-06-04T08:25:21;98557.59;;;20.39;100.00
21902;BME280;11115;46.038;14.612;2023-06-04T08:27:52;98549.13;;;20.16;100.00
21902;BME280;11115;46.038;14.612;2023-06-04T08:30:25;98553.34;;;20.45;100.00
21902;BME280;11115;46.038;14.612;2023-06-04T08:32:58;98530.38;;;20.63;100.00
21902;BME280;11115;46.038;14.612;2023-06-04T08:35:32;98547.69;;;20.87;100.00
21902;BME280;11115;46.038;14.612;2023-06-04T08:38:11;98557.78;;;20.92;100.00
21902;BME280;11115;46.038;14.612;2023-06-04T08:40:42;98537.78;;;20.97;100.00
21902;BME280;11115;46.038;14.612;2023-06-04T08:43:15;98546.66;;;20.99;100.00
21902;BME280;11115;46.038;14.612;2023-06-04T08:45:59;98550.34;;;21.52;100.00
21902;BME280;11115;46.038;14.612;2023-06-04T08:48:35;98549.03;;;21.46;100.00
21902;BME280;11115;46.038;14.612;2023-06-04T08:51:21;98548.44;;;21.60;100.00
21902;BME280;11115;46.038;14.612;2023-06-04T08:53:53;98541.00;;;21.75;100.00
21902;BME280;11115;46.038;14.612;2023-06-04T08:56:40;98536.25;;;21.52;100.00
21902;BME280;11115;46.038;14.612;2023-06-04T08:59:15;98552.50;;;21.93;100.00
21902;BME280;11115;46.038;14.612;2023-06-04T09:01:47;98534.84;;;22.29;100.00
21902;BME280;11115;46.038;14.612;2023-06-04T09:04:29;98539.19;;;22.20;100.00
21902;BME280;11115;46.038;14.612;2023-06-04T09:07:11;98539.47;;;22.11;100.00
21902;BME280;11115;46.038;14.612;2023-06-04T09:09:47;98533.28;;;22.35;100.00
21902;BME280;11115;46.038;14.612;2023-06-04T09:12:45;98528.44;;;21.69;100.00
21902;BME280;11115;46.038;14.612;2023-06-04T09:15:18;98531.16;;;21.92;100.00
21902;BME280;11115;46.038;14.612;2023-06-04T09:17:52;98511.34;;;22.15;100.00
21902;BME280;11115;46.038;14.612;2023-06-04T09:20:22;98513.34;;;22.14;100.00
21902;BME280;11115;46.038;14.612;2023-06-04T09:22:57;98520.00;;;21.99;100.00
21902;BME280;11115;46.038;14.612;2023-06-04T09:25:42;98532.06;;;21.99;100.00
21902;BME280;11115;46.038;14.612;2023-06-04T09:28:14;98523.09;;;22.20;100.00
21902;BME280;11115;46.038;14.612;2023-06-04T09:30:54;98527.03;;;22.93;100.00
21902;BME280;11115;46.038;14.612;2023-06-04T09:33:29;98513.03;;;22.60;100.00
21902;BME280;11115;46.038;14.612;2023-06-04T09:36:13;98527.63;;;22.72;100.00
21902;BME280;11115;46.038;14.612;2023-06-04T09:38:48;98525.44;;;22.55;100.00
21902;BME280;11115;46.038;14.612;2023-06-04T09:41:19;98535.78;;;22.81;100.00
21902;BME280;11115;46.038;14.612;2023-06-04T09:44:02;98548.75;;;23.34;100.00
21902;BME280;11115;46.038;14.612;2023-06-04T09:46:35;98548.00;;;23.47;100.00
21902;BME280;11115;46.038;14.612;2023-06-04T09:49:08;98540.63;;;23.28;100.00
21902;BME280;11115;46.038;14.612;2023-06-04T09:51:49;98541.88;;;22.83;100.00
21902;BME280;11115;46.038;14.612;2023-06-04T09:54:36;98547.03;;;22.37;100.00
21902;BME280;11115;46.038;14.612;2023-06-04T09:57:19;98543.66;;;21.94;100.00
21902;BME280;11115;46.038;14.612;2023-06-04T10:00:10;98525.13;;;21.93;100.00
21902;BME280;11115;46.038;14.612;2023-06-04T10:02:46;98509.56;;;21.69;100.00
21902;BME280;11115;46.038;14.612;2023-06-04T10:05:19;98542.47;;;21.65;100.00
21902;BME280;11115;46.038;14.612;2023-06-04T10:07:51;98546.97;;;21.70;100.00
21902;BME280;11115;46.038;14.612;2023-06-04T10:10:36;98547.78;;;21.70;100.00
21902;BME280;11115;46.038;14.612;2023-06-04T10:13:15;98545.13;;;21.55;100.00
21902;BME280;11115;46.038;14.612;2023-06-04T10:15:58;98542.66;;;21.49;100.00
21902;BME280;11115;46.038;14.612;2023-06-04T10:18:45;98547.69;;;21.37;100.00
21902;BME280;11115;46.038;14.612;2023-06-04T10:21:18;98538.06;;;21.38;100.00
21902;BME280;11115;46.038;14.612;2023-06-04T10:23:51;98535.53;;;21.29;100.00
21902;BME280;11115;46.038;14.612;2023-06-04T10:26:38;98533.78;;;21.21;100.00
21902;BME280;11115;46.038;14.612;2023-06-04T10:29:21;98546.03;;;21.09;100.00
21902;BME280;11115;46.038;14.612;2023-06-04T10:31:56;98550.88;;;20.86;100.00
21902;BME280;11115;46.038;14.612;2023-06-04T10:34:26;98554.06;;;20.84;100.00
21902;BME280;11115;46.038;14.612;2023-06-04T10:36:59;98544.63;;;20.73;100.00
21902;BME280;11115;46.038;14.612;2023-06-04T10:39:32;98572.13;;;20.83;100.00
21902;BME280;11115;46.038;14.612;2023-06-04T10:42:13;98579.03;;;20.67;100.00
21902;BME280;11115;46.038;14.612;2023-06-04T10:44:50;98577.41;;;20.66;100.00
21902;BME280;11115;46.038;14.612;2023-06-04T10:47:28;98580.66;;;20.45;100.00
21902;BME280;11115;46.038;14.612;2023-06-04T10:50:13;98584.75;;;20.31;100.00
21902;BME280;11115;46.038;14.612;2023-06-04T10:52:53;98578.03;;;20.36;100.00
21902;BME280;11115;46.038;14.612;2023-06-04T10:55:27;98578.91;;;20.21;100.00
21902;BME280;11115;46.038;14.612;2023-06-04T10:58:03;98586.97;;;20.03;100.00
21902;BME280;11115;46.038;14.612;2023-06-04T11:00:44;98595.13;;;20.08;100.00
21902;BME280;11115;46.038;14.612;2023-06-04T11:03:21;98596.22;;;20.04;100.00
21902;BME280;11115;46.038;14.612;2023-06-04T11:05:52;98599.66;;;19.78;100.00
21902;BME280;11115;46.038;14.612;2023-06-04T11:08:28;98582.13;;;19.65;100.00
21902;BME280;11115;46.038;14.612;2023-06-04T11:10:58;98599.72;;;19.62;100.00
21902;BME280;11115;46.038;14.612;2023-06-04T11:13:32;98608.84;;;19.43;100.00
21902;BME280;11115;46.038;14.612;2023-06-04T11:16:14;98604.81;;;19.25;100.00
21902;BME280;11115;46.038;14.612;2023-06-04T11:18:57;98620.56;;;18.98;100.00
21902;BME280;11115;46.038;14.612;2023-06-04T11:21:34;98625.28;;;18.94;100.00
21902;BME280;11115;46.038;14.612;2023-06-04T11:24:06;98638.75;;;19.04;100.00
21902;BME280;11115;46.038;14.612;2023-06-04T11:26:39;98637.56;;;18.73;100.00
21902;BME280;11115;46.038;14.612;2023-06-04T11:29:22;98632.34;;;18.60;100.00
21902;BME280;11115;46.038;14.612;2023-06-04T11:31:52;98640.19;;;18.54;100.00
21902;BME280;11115;46.038;14.612;2023-06-04T11:34:30;98650.09;;;18.64;100.00
21902;BME280;11115;46.038;14.612;2023-06-04T11:37:10;98610.78;;;18.48;100.00
21902;BME280;11115;46.038;14.612;2023-06-04T11:39:43;98658.72;;;18.59;100.00
21902;BME280;11115;46.038;14.612;2023-06-04T11:42:16;98650.72;;;18.45;100.00
21902;BME280;11115;46.038;14.612;2023-06-04T11:44:45;98657.59;;;18.47;100.00
21902;BME280;11115;46.038;14.612;2023-06-04T11:47:16;98656.94;;;18.38;100.00
21902;BME280;11115;46.038;14.612;2023-06-04T11:49:45;98639.47;;;18.29;100.00
21902;BME280;11115;46.038;14.612;2023-06-04T11:52:24;98667.41;;;18.54;100.00
21902;BME280;11115;46.038;14.612;2023-06-04T11:54:57;98669.38;;;18.53;100.00
21902;BME280;11115;46.038;14.612;2023-06-04T11:57:29;98671.81;;;18.55;100.00
21902;BME280;11115;46.038;14.612;2023-06-04T12:00:06;98660.31;;;18.44;100.00
21902;BME280;11115;46.038;14.612;2023-06-04T12:02:52;98667.06;;;18.43;100.00
21902;BME280;11115;46.038;14.612;2023-06-04T12:05:29;98673.06;;;18.29;100.00
21902;BME280;11115;46.038;14.612;2023-06-04T12:08:10;98681.34;;;18.38;100.00
21902;BME280;11115;46.038;14.612;2023-06-04T12:10:41;98680.63;;;18.41;100.00
21902;BME280;11115;46.038;14.612;2023-06-04T12:13:13;98690.03;;;18.48;100.00
21902;BME280;11115;46.038;14.612;2023-06-04T12:15:58;98681.63;;;18.48;100.00
21902;BME280;11115;46.038;14.612;2023-06-04T12:18:38;98681.50;;;18.57;100.00
21902;BME280;11115;46.038;14.612;2023-06-04T12:21:24;98683.84;;;18.55;100.00
21902;BME280;11115;46.038;14.612;2023-06-04T12:24:14;98679.19;;;18.47;100.00
21902;BME280;11115;46.038;14.612;2023-06-04T12:26:48;98671.91;;;18.58;100.00
21902;BME280;11115;46.038;14.612;2023-06-04T12:29:22;98666.22;;;18.55;100.00
21902;BME280;11115;46.038;14.612;2023-06-04T12:32:04;98669.63;;;18.48;100.00
21902;BME280;11115;46.038;14.612;2023-06-04T12:34:40;98666.81;;;18.48;100.00
21902;BME280;11115;46.038;14.612;2023-06-04T12:37:10;98665.19;;;18.47;100.00
21902;BME280;11115;46.038;14.612;2023-06-04T12:39:42;98660.53;;;18.51;100.00
21902;BME280;11115;46.038;14.612;2023-06-04T12:42:19;98665.59;;;18.61;100.00
21902;BME280;11115;46.038;14.612;2023-06-04T12:45:00;98667.63;;;18.48;100.00
21902;BME280;11115;46.038;14.612;2023-06-04T12:47:31;98656.13;;;18.38;100.00
21902;BME280;11115;46.038;14.612;2023-06-04T12:50:06;98654.50;;;18.37;100.00
21902;BME280;11115;46.038;14.612;2023-06-04T12:52:40;98656.22;;;18.41;100.00
21902;BME280;11115;46.038;14.612;2023-06-04T12:55:13;98659.22;;;18.48;100.00
21902;BME280;11115;46.038;14.612;2023-06-04T12:57:59;98654.91;;;18.51;100.00
21902;BME280;11115;46.038;14.612;2023-06-04T13:00:38;98662.28;;;18.43;100.00
21902;BME280;11115;46.038;14.612;2023-06-04T13:03:13;98650.94;;;18.52;100.00
21902;BME280;11115;46.038;14.612;2023-06-04T13:05:42;98662.38;;;18.47;100.00
21902;BME280;11115;46.038;14.612;2023-06-04T13:08:11;98659.81;;;18.54;100.00
21902;BME280;11115;46.038;14.612;2023-06-04T13:10:41;98638.63;;;18.41;100.00
21902;BME280;11115;46.038;14.612;2023-06-04T13:13:21;98639.44;;;18.41;100.00
21902;BME280;11115;46.038;14.612;2023-06-04T13:15:54;98659.09;;;18.57;100.00
21902;BME280;11115;46.038;14.612;2023-06-04T13:18:31;98648.47;;;18.50;100.00
21902;BME280;11115;46.038;14.612;2023-06-04T13:21:00;98645.44;;;18.56;100.00
21902;BME280;11115;46.038;14.612;2023-06-04T13:23:31;98624.69;;;18.44;100.00
21902;BME280;11115;46.038;14.612;2023-06-04T13:26:19;98622.53;;;18.38;100.00